Time;durP1;ratioP1;P1;durP2;ratioP2;P2;SDS_P1;SDS_P2;PMS_P1;PMS_P2;Temp;Humidity;BMP_temperature;BMP_pressure;BME280_temperature;BME280_humidity;BME280_pressure;Samples;Min_cycle;Max_cycle;Signal;HPM_P1;HPM_P2
2023/05/06 00:00:46;;;;;;;12.33;10.33;;;13.60;99.90;;;;;;4994612;28;20211;-78
2023/05/06 00:03:15;;;;;;;12.27;10.47;;;13.60;99.90;;;;;;4994869;28;20267;-78
2023/05/06 00:05:44;;;;;;;14.80;11.33;;;13.60;99.90;;;;;;4995240;28;20212;-78
2023/05/06 00:08:11;;;;;;;18.27;13.03;;;13.60;99.90;;;;;;4993781;28;20298;-78
2023/05/06 00:10:38;;;;;;;15.97;13.03;;;13.70;99.90;;;;;;4995346;28;20278;-77
2023/05/06 00:13:05;;;;;;;13.20;11.80;;;13.60;99.90;;;;;;4995138;28;20254;-78
2023/05/06 00:15:32;;;;;;;15.47;12.13;;;13.60;99.90;;;;;;4994437;28;20200;-79
2023/05/06 00:17:59;;;;;;;16.03;13.13;;;13.60;99.90;;;;;;4995160;28;20198;-80
2023/05/06 00:20:28;;;;;;;15.40;12.77;;;13.60;99.90;;;;;;4994956;28;20534;-80
2023/05/06 00:22:55;;;;;;;17.53;13.37;;;13.60;99.90;;;;;;4987530;28;20723;-79
2023/05/06 00:25:22;;;;;;;18.67;13.57;;;13.60;99.90;;;;;;4975404;28;20701;-79
2023/05/06 00:27:49;;;;;;;14.37;12.30;;;13.50;99.90;;;;;;4988419;28;20218;-79
2023/05/06 00:30:16;;;;;;;14.17;12.20;;;13.50;99.90;;;;;;4994884;28;20777;-79
2023/05/06 00:32:43;;;;;;;14.53;11.87;;;13.50;99.90;;;;;;4993865;28;20292;-79
2023/05/06 00:35:10;;;;;;;14.80;12.77;;;13.40;99.90;;;;;;4994180;28;20310;-79
2023/05/06 00:37:38;;;;;;;19.93;14.20;;;13.40;99.90;;;;;;4994102;28;20231;-79
2023/05/06 00:40:06;;;;;;;17.33;13.60;;;13.40;99.90;;;;;;4994983;28;20222;-78
2023/05/06 00:42:34;;;;;;;18.97;14.50;;;13.40;99.90;;;;;;4993798;28;20207;-79
2023/05/06 00:45:01;;;;;;;18.17;14.80;;;13.40;99.90;;;;;;4994934;28;20207;-79
2023/05/06 00:47:28;;;;;;;18.63;14.97;;;13.50;99.90;;;;;;4993701;28;20227;-79
2023/05/06 00:49:55;;;;;;;17.70;14.27;;;13.40;99.90;;;;;;4994180;28;20218;-79
2023/05/06 00:52:22;;;;;;;17.70;12.77;;;13.50;99.90;;;;;;4994659;28;20224;-77
2023/05/06 00:54:50;;;;;;;17.37;14.20;;;13.40;99.90;;;;;;4994238;28;20212;-79
2023/05/06 00:57:17;;;;;;;17.70;14.03;;;13.40;99.90;;;;;;4993174;28;20290;-79
2023/05/06 00:59:44;;;;;;;17.73;14.73;;;13.30;99.90;;;;;;4994379;28;20215;-79
2023/05/06 01:02:11;;;;;;;17.67;14.00;;;13.30;99.90;;;;;;4994076;28;20557;-78
2023/05/06 01:04:40;;;;;;;16.17;13.80;;;13.30;99.90;;;;;;4992215;28;20302;-78
2023/05/06 01:07:15;;;;;;;18.03;14.53;;;13.30;99.90;;;;;;4994205;28;20207;-79
2023/05/06 01:09:47;;;;;;;18.48;14.45;;;13.20;99.90;;;;;;4993922;28;20223;-79
2023/05/06 01:12:24;;;;;;;14.67;12.73;;;13.20;99.90;;;;;;4992836;28;20239;-78
2023/05/06 01:14:59;;;;;;;17.90;14.77;;;13.20;99.90;;;;;;4993737;28;20212;-79
2023/05/06 01:17:29;;;;;;;15.63;13.47;;;13.10;99.90;;;;;;4993597;28;20203;-78
2023/05/06 01:20:00;;;;;;;15.63;13.03;;;13.10;99.90;;;;;;4992424;28;20204;-78
2023/05/06 01:22:30;;;;;;;15.87;12.80;;;13.10;99.90;;;;;;4993917;28;20601;-78
2023/05/06 01:24:58;;;;;;;14.97;12.43;;;13.10;99.90;;;;;;4992860;28;20208;-78
2023/05/06 01:27:25;;;;;;;17.97;14.20;;;13.00;99.90;;;;;;4992869;28;20310;-78
2023/05/06 01:29:52;;;;;;;14.17;12.37;;;13.00;99.90;;;;;;4994067;28;20284;-79
2023/05/06 01:32:31;;;;;;;14.37;12.23;;;12.90;99.90;;;;;;4992982;28;20286;-78
2023/05/06 01:35:06;;;;;;;14.33;11.80;;;12.90;99.90;;;;;;4992473;28;20303;-81
2023/05/06 01:37:42;;;;;;;11.80;10.60;;;12.90;99.90;;;;;;4993042;28;20200;-78
2023/05/06 01:40:11;;;;;;;12.47;10.47;;;12.80;99.90;;;;;;4992776;28;20247;-78
2023/05/06 01:42:39;;;;;;;18.07;13.23;;;12.80;99.90;;;;;;4993432;28;20247;-79
2023/05/06 01:45:08;;;;;;;13.30;11.20;;;12.70;99.90;;;;;;4993071;28;20250;-77
2023/05/06 01:47:35;;;;;;;15.67;12.33;;;12.70;99.90;;;;;;4993372;28;20302;-79
2023/05/06 01:50:04;;;;;;;12.90;11.33;;;12.70;99.90;;;;;;4993277;28;20597;-78
2023/05/06 01:52:31;;;;;;;13.18;11.02;;;12.60;99.90;;;;;;4992170;28;20209;-80
2023/05/06 01:54:58;;;;;;;12.33;11.03;;;12.60;99.90;;;;;;4993326;28;20226;-78
2023/05/06 01:57:27;;;;;;;12.50;10.83;;;12.50;99.90;;;;;;4993337;28;20310;-77
2023/05/06 01:59:54;;;;;;;14.90;13.03;;;12.50;99.90;;;;;;4991378;28;20216;-80
2023/05/06 02:02:21;;;;;;;14.80;11.80;;;12.50;99.90;;;;;;4993000;28;20200;-79
2023/05/06 02:04:48;;;;;;;12.73;10.60;;;12.40;99.90;;;;;;4992362;28;20222;-79
2023/05/06 02:07:14;;;;;;;13.73;12.17;;;12.40;99.90;;;;;;4992903;28;20399;-79
2023/05/06 02:09:41;;;;;;;14.67;12.47;;;12.40;99.90;;;;;;4993119;28;20286;-80
2023/05/06 02:12:08;;;;;;;16.20;13.53;;;12.40;99.90;;;;;;4993121;28;20228;-80
2023/05/06 02:14:36;;;;;;;17.23;14.47;;;12.30;99.90;;;;;;4991652;28;20230;-78
2023/05/06 02:17:04;;;;;;;19.77;15.87;;;12.30;99.90;;;;;;4993042;28;20614;-80
2023/05/06 02:19:31;;;;;;;20.27;16.43;;;12.30;99.90;;;;;;4992140;28;20754;-79
2023/05/06 02:21:58;;;;;;;19.80;15.40;;;12.30;99.90;;;;;;4992403;28;20207;-79
2023/05/06 02:24:25;;;;;;;22.93;16.13;;;12.30;99.90;;;;;;4992984;28;20212;-80
2023/05/06 02:26:52;;;;;;;21.17;16.13;;;12.30;99.90;;;;;;4993062;28;20204;-79
2023/05/06 02:29:19;;;;;;;17.27;13.90;;;12.30;99.90;;;;;;4991738;28;20691;-80
2023/05/06 02:31:47;;;;;;;16.57;13.57;;;12.20;99.90;;;;;;4992172;28;20607;-78
2023/05/06 02:34:15;;;;;;;17.73;13.37;;;12.20;99.90;;;;;;4992697;28;20520;-79
2023/05/06 02:36:41;;;;;;;18.33;14.67;;;12.20;99.90;;;;;;4992614;28;20607;-80
2023/05/06 02:39:08;;;;;;;16.80;13.93;;;12.10;99.90;;;;;;4992377;28;20222;-79
2023/05/06 02:41:35;;;;;;;14.83;12.57;;;12.10;99.90;;;;;;4991172;28;20879;-79
2023/05/06 02:44:02;;;;;;;14.97;12.00;;;12.10;99.90;;;;;;4992815;28;20204;-80
2023/05/06 02:46:29;;;;;;;13.97;11.43;;;12.00;99.90;;;;;;4996978;28;20212;-79
2023/05/06 02:48:57;;;;;;;14.07;11.77;;;12.00;99.90;;;;;;4998980;28;20204;-79
2023/05/06 02:51:24;;;;;;;12.90;11.20;;;12.00;99.90;;;;;;4999193;28;20294;-78
2023/05/06 02:53:51;;;;;;;13.40;11.53;;;11.90;99.90;;;;;;4998978;28;20243;-80
2023/05/06 02:56:18;;;;;;;13.90;11.90;;;11.90;99.90;;;;;;4997106;28;20664;-81
2023/05/06 02:58:45;;;;;;;12.77;11.47;;;11.90;99.90;;;;;;4999161;28;20290;-78
2023/05/06 03:01:12;;;;;;;13.27;11.73;;;11.80;99.90;;;;;;4999057;28;20219;-80
2023/05/06 03:03:39;;;;;;;12.20;10.70;;;11.80;99.90;;;;;;4997383;28;20318;-79
2023/05/06 03:06:07;;;;;;;13.97;11.53;;;11.80;99.90;;;;;;4999369;28;20203;-78
2023/05/06 03:08:34;;;;;;;14.07;11.60;;;11.80;99.90;;;;;;4999026;28;20269;-79
2023/05/06 03:11:01;;;;;;;13.60;11.37;;;11.80;99.90;;;;;;4998780;28;20606;-80
2023/05/06 03:13:28;;;;;;;15.90;11.93;;;11.70;99.90;;;;;;4988745;28;20208;-81
2023/05/06 03:15:56;;;;;;;15.23;12.97;;;11.70;99.90;;;;;;4979768;28;20224;-80
2023/05/06 03:18:23;;;;;;;16.77;13.27;;;11.70;99.90;;;;;;4979551;28;20315;-79
2023/05/06 03:20:50;;;;;;;15.37;12.60;;;11.70;99.90;;;;;;4979972;28;20189;-81
2023/05/06 03:23:18;;;;;;;17.00;14.17;;;11.70;99.90;;;;;;4995868;28;20210;-79
2023/05/06 03:25:45;;;;;;;19.03;14.73;;;11.60;99.90;;;;;;4998282;28;20654;-80
2023/05/06 03:28:12;;;;;;;17.23;14.63;;;11.70;99.90;;;;;;4979190;28;20665;-79
2023/05/06 03:30:39;;;;;;;19.80;16.50;;;11.70;99.90;;;;;;4979061;28;20303;-79
2023/05/06 03:33:06;;;;;;;16.37;14.23;;;11.70;99.90;;;;;;4979620;28;20201;-79
2023/05/06 03:35:33;;;;;;;17.53;14.80;;;11.60;99.90;;;;;;4986125;28;20244;-79
2023/05/06 03:37:59;;;;;;;17.83;14.13;;;11.60;99.90;;;;;;4998757;28;20282;-80
2023/05/06 03:40:28;;;;;;;17.97;13.97;;;11.60;99.90;;;;;;4998885;28;20224;-80
2023/05/06 03:42:55;;;;;;;18.70;14.83;;;11.60;99.90;;;;;;4998736;28;20573;-81
2023/05/06 03:45:22;;;;;;;16.03;13.43;;;11.60;99.90;;;;;;4997809;28;20291;-80
2023/05/06 03:47:48;;;;;;;15.67;12.80;;;11.60;99.90;;;;;;4998649;28;20211;-78
2023/05/06 03:50:16;;;;;;;14.23;11.43;;;11.60;99.90;;;;;;4998635;28;20287;-79
2023/05/06 03:52:43;;;;;;;15.33;11.63;;;11.50;99.90;;;;;;4998521;28;20287;-78
2023/05/06 03:55:11;;;;;;;14.27;12.33;;;11.50;99.90;;;;;;4998806;28;20222;-81
2023/05/06 03:57:39;;;;;;;17.20;15.33;;;11.50;99.90;;;;;;4995279;28;20215;-80
2023/05/06 04:00:07;;;;;;;15.97;12.47;;;11.40;99.90;;;;;;4995678;28;20285;-79
2023/05/06 04:02:35;;;;;;;16.67;13.53;;;11.40;99.90;;;;;;4995496;28;20604;-79
2023/05/06 04:05:02;;;;;;;17.90;15.50;;;11.40;99.90;;;;;;4995409;28;20207;-79
2023/05/06 04:07:29;;;;;;;19.03;16.80;;;11.40;99.90;;;;;;4995202;28;20563;-78
2023/05/06 04:09:56;;;;;;;16.77;14.77;;;11.40;99.90;;;;;;4994923;28;20215;-81
2023/05/06 04:12:23;;;;;;;25.77;19.00;;;11.40;99.90;;;;;;4995806;28;20208;-80
2023/05/06 04:14:52;;;;;;;22.80;17.43;;;11.40;99.90;;;;;;4994779;28;20227;-80
2023/05/06 04:17:19;;;;;;;17.57;15.17;;;11.40;99.90;;;;;;4995629;28;20299;-80
2023/05/06 04:19:46;;;;;;;21.40;18.07;;;11.40;99.90;;;;;;4994467;28;20554;-78
2023/05/06 04:22:12;;;;;;;20.57;15.67;;;11.50;99.90;;;;;;4995389;28;20211;-80
2023/05/06 04:24:40;;;;;;;25.60;17.27;;;11.50;99.90;;;;;;4995477;28;20200;-78
2023/05/06 04:27:07;;;;;;;20.97;17.57;;;11.50;99.90;;;;;;4994732;28;20196;-79
2023/05/06 04:29:34;;;;;;;22.37;18.60;;;11.50;99.90;;;;;;4994327;28;20642;-78
2023/05/06 04:32:03;;;;;;;22.37;18.40;;;11.60;99.90;;;;;;4994852;28;20614;-81
2023/05/06 04:34:30;;;;;;;23.20;20.07;;;11.60;99.90;;;;;;4994342;28;20212;-80
2023/05/06 04:36:58;;;;;;;25.63;19.93;;;11.70;99.90;;;;;;4994416;28;20239;-78
2023/05/06 04:39:25;;;;;;;24.40;20.03;;;11.70;99.90;;;;;;4994858;28;20223;-78
2023/05/06 04:41:51;;;;;;;25.37;21.50;;;11.80;99.90;;;;;;4993954;28;20226;-78
2023/05/06 04:44:19;;;;;;;26.97;21.23;;;11.80;99.90;;;;;;4994712;28;20540;-79
2023/05/06 04:46:46;;;;;;;24.93;18.80;;;11.80;99.90;;;;;;4994703;28;20196;-80
2023/05/06 04:49:14;;;;;;;24.23;19.80;;;11.90;99.90;;;;;;4994264;28;20234;-80
2023/05/06 04:51:41;;;;;;;24.97;21.60;;;11.90;99.90;;;;;;4994381;28;20286;-78
2023/05/06 04:54:08;;;;;;;26.10;21.00;;;12.00;99.90;;;;;;4995231;28;20203;-79
2023/05/06 04:56:35;;;;;;;25.83;21.20;;;12.10;99.90;;;;;;4994685;28;20378;-80
2023/05/06 04:59:01;;;;;;;26.47;20.90;;;12.10;99.90;;;;;;4994500;28;20204;-79
2023/05/06 05:01:28;;;;;;;25.27;20.40;;;12.10;99.90;;;;;;4994181;28;20196;-79
2023/05/06 05:03:55;;;;;;;28.57;22.37;;;12.20;99.90;;;;;;4994109;28;20231;-78
2023/05/06 05:06:23;;;;;;;25.30;21.33;;;12.20;99.90;;;;;;4994990;28;20525;-79
2023/05/06 05:08:50;;;;;;;29.40;23.87;;;12.30;99.90;;;;;;4993440;28;20210;-79
2023/05/06 05:11:17;;;;;;;29.37;22.27;;;12.30;99.90;;;;;;4992774;28;20291;-80
2023/05/06 05:13:44;;;;;;;29.63;22.17;;;12.40;99.90;;;;;;4994182;28;20234;-79
2023/05/06 05:16:11;;;;;;;24.20;19.83;;;12.40;99.90;;;;;;4993742;28;20228;-78
2023/05/06 05:18:38;;;;;;;25.10;20.73;;;12.50;99.90;;;;;;4993891;28;20679;-78
2023/05/06 05:21:05;;;;;;;26.90;21.43;;;12.50;99.90;;;;;;4993391;28;20204;-78
2023/05/06 05:23:33;;;;;;;29.77;24.10;;;12.60;99.90;;;;;;4993341;28;20195;-78
2023/05/06 05:26:01;;;;;;;33.37;25.60;;;12.60;99.90;;;;;;4994426;28;20230;-78
2023/05/06 05:28:28;;;;;;;29.83;23.63;;;12.70;99.90;;;;;;4993764;28;20214;-78
2023/05/06 05:30:55;;;;;;;27.27;22.60;;;12.70;99.90;;;;;;4992578;28;20283;-78
2023/05/06 05:33:22;;;;;;;27.17;22.10;;;12.70;99.90;;;;;;4993689;28;20204;-82
2023/05/06 05:35:48;;;;;;;27.47;22.47;;;12.80;99.90;;;;;;4994062;28;20224;-78
2023/05/06 05:38:15;;;;;;;26.23;23.00;;;12.80;99.90;;;;;;4993809;28;20222;-78
2023/05/06 05:40:44;;;;;;;29.03;23.20;;;13.00;99.90;;;;;;4993008;28;20285;-79
2023/05/06 05:43:11;;;;;;;29.63;23.17;;;13.00;99.90;;;;;;4993936;28;20204;-79
2023/05/06 05:45:38;;;;;;;29.93;24.60;;;13.10;99.90;;;;;;4992932;28;20283;-80
2023/05/06 05:48:05;;;;;;;34.37;26.43;;;13.20;99.90;;;;;;4994016;28;20290;-80
2023/05/06 05:50:32;;;;;;;34.28;25.95;;;13.30;99.90;;;;;;4993028;28;20204;-79
2023/05/06 05:52:59;;;;;;;32.33;27.00;;;13.50;99.90;;;;;;4992782;28;20311;-79
2023/05/06 05:55:28;;;;;;;34.07;27.70;;;13.80;99.90;;;;;;4982076;28;20247;-80
2023/05/06 05:57:56;;;;;;;41.63;32.10;;;14.00;99.90;;;;;;4974141;28;20204;-78
2023/05/06 06:00:23;;;;;;;33.65;27.02;;;14.30;99.90;;;;;;4973886;28;20211;-79
2023/05/06 06:02:50;;;;;;;35.67;26.65;;;14.40;99.90;;;;;;4984171;28;20232;-78
2023/05/06 06:05:17;;;;;;;35.83;29.00;;;14.50;99.90;;;;;;4992238;28;20696;-79
2023/05/06 06:07:44;;;;;;;33.33;27.42;;;14.50;99.90;;;;;;4993668;28;20206;-78
2023/05/06 06:10:12;;;;;;;34.70;29.13;;;14.60;99.90;;;;;;4993428;28;20223;-79
2023/05/06 06:12:39;;;;;;;34.17;27.90;;;14.80;99.90;;;;;;4991682;28;20547;-79
2023/05/06 06:15:09;;;;;;;32.42;25.70;;;15.00;99.90;;;;;;4991756;28;20650;-81
2023/05/06 06:17:36;;;;;;;32.15;26.17;;;15.20;99.90;;;;;;4993352;28;20287;-80
2023/05/06 06:20:03;;;;;;;28.13;24.92;;;15.20;99.90;;;;;;4977273;28;20212;-80
2023/05/06 06:22:30;;;;;;;28.50;25.02;;;15.20;99.90;;;;;;4973812;28;20196;-79
2023/05/06 06:24:57;;;;;;;33.50;25.00;;;15.20;99.90;;;;;;4974022;28;20557;-80
2023/05/06 06:27:24;;;;;;;32.30;25.17;;;15.40;99.90;;;;;;4976970;28;20220;-79
2023/05/06 06:29:51;;;;;;;29.70;25.02;;;15.70;99.90;;;;;;4993020;28;20279;-80
2023/05/06 06:32:19;;;;;;;34.08;25.75;;;16.00;99.90;;;;;;4992793;28;20498;-80
2023/05/06 06:34:46;;;;;;;30.23;25.38;;;16.30;99.90;;;;;;4992610;28;20196;-80
2023/05/06 06:37:13;;;;;;;28.23;24.48;;;16.70;99.90;;;;;;4991773;28;20234;-80
2023/05/06 06:39:40;;;;;;;27.20;23.38;;;17.00;99.90;;;;;;4992967;28;20219;-81
2023/05/06 06:42:07;;;;;;;24.83;22.08;;;17.40;99.90;;;;;;4992212;28;20495;-81
2023/05/06 06:44:34;;;;;;;23.60;21.02;;;17.60;99.90;;;;;;4992822;28;20259;-79
2023/05/06 06:47:01;;;;;;;24.27;20.67;;;17.90;99.90;;;;;;4991344;28;20200;-81
2023/05/06 06:49:30;;;;;;;25.30;20.48;;;18.20;99.90;;;;;;4987166;28;20293;-81
2023/05/06 06:51:57;;;;;;;24.23;20.15;;;18.20;99.90;;;;;;4991063;28;20291;-81
2023/05/06 06:54:24;;;;;;;21.05;18.80;;;18.40;99.90;;;;;;4985535;28;20878;-81
2023/05/06 06:56:54;;;;;;;21.77;18.70;;;18.40;99.90;;;;;;4988507;28;20303;-82
2023/05/06 06:59:39;;;;;;;20.27;16.88;;;18.50;99.90;;;;;;4986380;28;20487;-81
2023/05/06 07:02:07;;;;;;;21.83;17.90;;;18.50;99.90;;;;;;4988887;28;20667;-80
2023/05/06 07:04:35;;;;;;;17.75;15.35;;;18.40;99.90;;;;;;4991859;28;20239;-81
2023/05/06 07:07:02;;;;;;;21.52;17.67;;;18.30;99.90;;;;;;4992098;28;20218;-80
2023/05/06 07:09:29;;;;;;;19.48;15.82;;;18.20;99.90;;;;;;4990484;28;20200;-82
2023/05/06 07:11:57;;;;;;;17.30;13.88;;;18.10;99.90;;;;;;4992414;28;20298;-81
2023/05/06 07:14:25;;;;;;;17.77;14.98;;;18.00;99.90;;;;;;4992245;28;20204;-78
2023/05/06 07:16:51;;;;;;;21.63;15.57;;;18.00;99.90;;;;;;4986854;28;20513;-81
2023/05/06 07:19:18;;;;;;;21.80;15.55;;;17.90;99.90;;;;;;4972909;28;20285;-80
2023/05/06 07:21:47;;;;;;;20.42;15.48;;;17.90;99.90;;;;;;4977154;28;20271;-80
2023/05/06 07:24:13;;;;;;;19.23;14.80;;;17.90;99.90;;;;;;4991717;28;20231;-81
2023/05/06 07:26:41;;;;;;;20.95;15.25;;;18.00;99.90;;;;;;4991541;28;20283;-81
2023/05/06 07:29:07;;;;;;;22.02;15.55;;;18.20;99.90;;;;;;4992424;28;20227;-80
2023/05/06 07:31:34;;;;;;;21.33;14.20;;;18.40;99.90;;;;;;4992169;28;20194;-80
2023/05/06 07:34:01;;;;;;;19.50;13.52;;;18.70;99.90;;;;;;4992386;28;20200;-81
2023/05/06 07:36:29;;;;;;;20.98;13.48;;;19.10;99.90;;;;;;4995734;28;20654;-81
2023/05/06 07:38:58;;;;;;;22.83;14.95;;;19.50;99.90;;;;;;4995154;28;20196;-80
2023/05/06 07:41:25;;;;;;;21.88;14.25;;;19.90;99.90;;;;;;4994834;28;20322;-80
2023/05/06 07:43:51;;;;;;;20.10;12.50;;;20.20;99.90;;;;;;4994650;28;20296;-81
2023/05/06 07:46:18;;;;;;;15.75;9.10;;;20.40;99.90;;;;;;4995472;28;20199;-81
2023/05/06 07:48:45;;;;;;;16.77;9.13;;;20.50;99.90;;;;;;4995852;28;20202;-80
2023/05/06 07:51:12;;;;;;;16.10;8.85;;;20.50;99.90;;;;;;4995193;28;20210;-82
2023/05/06 07:53:39;;;;;;;11.13;5.22;;;20.40;99.90;;;;;;4985469;28;20507;-81
2023/05/06 07:56:07;;;;;;;12.95;4.95;;;20.30;99.90;;;;;;4975843;28;20216;-81
2023/05/06 07:58:34;;;;;;;10.63;3.65;;;20.10;99.90;;;;;;4975640;28;20291;-81
2023/05/06 08:01:02;;;;;;;10.93;3.17;;;20.10;99.90;;;;;;4975854;28;20207;-81
2023/05/06 08:03:29;;;;;;;9.23;4.30;;;20.00;99.90;;;;;;4989001;28;20256;-82
2023/05/06 08:05:56;;;;;;;10.27;4.50;;;19.90;99.90;;;;;;4992885;28;20196;-80
2023/05/06 08:08:26;;;;;;;10.98;4.20;;;20.00;99.90;;;;;;4994470;28;20593;-81
2023/05/06 08:10:53;;;;;;;12.02;5.18;;;20.20;99.90;;;;;;4994094;28;20196;-78
2023/05/06 08:13:22;;;;;;;12.10;6.07;;;20.30;99.90;;;;;;4992399;28;20214;-81
2023/05/06 08:15:49;;;;;;;15.52;7.00;;;20.40;99.90;;;;;;4994396;28;20212;-84
2023/05/06 08:18:16;;;;;;;11.95;5.63;;;20.40;99.90;;;;;;4993840;28;20236;-80
2023/05/06 08:20:42;;;;;;;12.13;6.20;;;20.50;99.90;;;;;;4994256;28;20223;-82
2023/05/06 08:23:09;;;;;;;11.85;5.20;;;20.80;99.90;;;;;;4994462;28;20287;-80
2023/05/06 08:25:36;;;;;;;13.70;5.32;;;21.20;99.90;;;;;;4994893;28;20200;-82
2023/05/06 08:28:03;;;;;;;12.45;3.97;;;21.10;99.90;;;;;;4989119;28;20395;-83
2023/05/06 08:30:32;;;;;;;13.20;5.93;;;21.30;99.90;;;;;;4975466;28;20239;-80
2023/05/06 08:32:58;;;;;;;10.00;4.13;;;21.70;99.90;;;;;;4985271;28;20262;-80
2023/05/06 08:35:25;;;;;;;12.02;4.55;;;21.90;99.90;;;;;;4993765;28;20218;-80
2023/05/06 08:37:52;;;;;;;18.77;6.38;;;22.00;99.90;;;;;;4994188;28;20228;-82
2023/05/06 08:40:22;;;;;;;11.40;4.60;;;22.10;99.90;;;;;;4985982;22;20404;-81
2023/05/06 08:42:50;;;;;;;11.25;5.05;;;22.20;99.90;;;;;;4993573;28;20231;-81
2023/05/06 08:45:17;;;;;;;13.57;6.43;;;22.30;99.90;;;;;;4993831;28;20204;-81
2023/05/06 08:47:47;;;;;;;19.45;7.72;;;22.50;99.90;;;;;;4992643;28;20283;-83
2023/05/06 08:50:14;;;;;;;17.20;7.90;;;22.70;99.90;;;;;;4994532;28;20207;-82
2023/05/06 08:52:41;;;;;;;17.55;7.43;;;22.70;99.90;;;;;;4994600;28;20226;-83
2023/05/06 08:55:10;;;;;;;19.40;8.95;;;22.80;99.90;;;;;;4993195;28;20208;-83
2023/05/06 08:57:37;;;;;;;17.00;8.70;;;23.00;99.90;;;;;;4994250;28;20247;-83
2023/05/06 09:00:09;;;;;;;12.55;6.55;;;23.10;99.90;;;;;;4993201;28;20597;-83
2023/05/06 09:02:37;;;;;;;13.18;5.38;;;23.20;99.90;;;;;;4993732;28;20214;-83
2023/05/06 09:05:08;;;;;;;9.07;3.80;;;23.20;99.90;;;;;;4994542;28;20220;-83
2023/05/06 09:07:34;;;;;;;11.43;3.88;;;23.30;99.90;;;;;;4994524;28;20681;-82
2023/05/06 09:10:06;;;;;;;8.82;3.90;;;23.30;99.90;;;;;;4993161;28;20215;-80
2023/05/06 09:12:36;;;;;;;7.88;3.25;;;23.20;99.90;;;;;;4993875;28;20196;-81
2023/05/06 09:15:04;;;;;;;7.38;2.53;;;23.30;99.90;;;;;;4994219;28;20188;-81
2023/05/06 09:17:32;;;;;;;11.05;3.55;;;23.50;99.90;;;;;;4993159;28;20224;-80
2023/05/06 09:19:59;;;;;;;9.48;3.97;;;23.30;99.90;;;;;;4994327;28;20866;-81
2023/05/06 09:22:29;;;;;;;11.40;4.07;;;23.30;99.90;;;;;;4994367;28;20206;-81
2023/05/06 09:24:57;;;;;;;11.07;3.35;;;23.30;99.90;;;;;;4987598;28;20308;-85
2023/05/06 09:27:26;;;;;;;7.43;3.55;;;23.40;99.90;;;;;;4978540;28;20582;-84
2023/05/06 09:30:01;;;;;;;8.07;3.72;;;23.40;99.90;;;;;;4979108;28;20627;-83
2023/05/06 09:32:28;;;;;;;7.90;3.05;;;23.20;99.90;;;;;;4974789;28;20279;-83
2023/05/06 09:34:55;;;;;;;9.90;3.65;;;23.00;99.90;;;;;;4974268;28;20207;-83
2023/05/06 09:37:22;;;;;;;8.80;3.22;;;23.00;99.90;;;;;;4983079;28;20219;-83
2023/05/06 09:39:54;;;;;;;9.15;2.88;;;22.90;99.90;;;;;;4993151;28;20248;-82
2023/05/06 09:42:22;;;;;;;13.05;4.00;;;22.80;99.90;;;;;;4993183;28;20204;-82
2023/05/06 09:44:51;;;;;;;10.50;4.50;;;22.60;99.90;;;;;;4989270;28;20679;-84
2023/05/06 09:47:19;;;;;;;12.80;4.10;;;22.60;99.90;;;;;;4973934;28;20204;-84
2023/05/06 09:49:46;;;;;;;12.13;4.47;;;22.40;99.90;;;;;;4988266;28;20294;-80
2023/05/06 09:52:14;;;;;;;10.93;3.85;;;22.10;99.90;;;;;;4991779;28;20290;-83
2023/05/06 09:54:43;;;;;;;10.23;3.83;;;21.90;99.90;;;;;;4992752;28;20256;-83
2023/05/06 09:57:14;;;;;;;15.00;4.18;;;21.50;99.90;;;;;;4992526;28;20232;-81
2023/05/06 09:59:43;;;;;;;10.48;4.13;;;21.70;99.90;;;;;;4992305;28;20601;-83
2023/05/06 10:02:11;;;;;;;9.98;3.85;;;21.80;99.90;;;;;;4992981;28;20216;-81
2023/05/06 10:04:40;;;;;;;13.00;4.18;;;21.90;99.90;;;;;;4982693;28;20252;-79
2023/05/06 10:07:10;;;;;;;10.57;3.60;;;22.10;99.90;;;;;;4973455;28;20289;-80
2023/05/06 10:09:38;;;;;;;10.13;4.30;;;22.00;99.90;;;;;;4973255;28;20205;-77
2023/05/06 10:12:07;;;;;;;9.32;4.32;;;22.00;99.90;;;;;;4972902;28;20197;-77
2023/05/06 10:14:35;;;;;;;13.95;3.95;;;22.10;99.90;;;;;;4984132;28;20244;-78
2023/05/06 10:17:06;;;;;;;9.30;3.50;;;22.10;99.90;;;;;;4992466;28;20562;-79
2023/05/06 10:19:33;;;;;;;8.65;3.85;;;22.50;99.90;;;;;;4991329;28;20545;-79
2023/05/06 10:22:06;;;;;;;8.82;3.40;;;22.80;99.90;;;;;;4992778;28;20616;-80
2023/05/06 10:24:41;;;;;;;13.43;4.47;;;22.90;99.90;;;;;;4991051;28;20211;-79
2023/05/06 10:27:10;;;;;;;12.77;4.40;;;22.90;99.90;;;;;;4990898;28;20199;-80
2023/05/06 13:40:32;;;;;;;6.90;3.95;;;24.20;99.90;;;;;;5008632;28;20676;-80
2023/05/06 13:42:59;;;;;;;8.48;4.82;;;24.50;99.90;;;;;;5002067;28;20625;-79
2023/05/06 13:45:26;;;;;;;7.47;4.00;;;24.50;99.90;;;;;;5004285;28;20234;-80
2023/05/06 13:47:53;;;;;;;9.45;4.95;;;24.50;99.90;;;;;;5003228;28;20205;-76
2023/05/06 13:50:19;;;;;;;6.53;4.30;;;24.30;99.90;;;;;;4999956;28;20511;-79
2023/05/06 13:52:46;;;;;;;5.63;3.58;;;24.20;99.90;;;;;;5004440;28;20201;-81
2023/05/06 13:55:13;;;;;;;6.88;3.78;;;24.00;99.90;;;;;;4993034;28;20212;-83
2023/05/06 13:57:42;;;;;;;6.00;3.80;;;23.90;99.90;;;;;;4992265;28;20299;-82
2023/05/06 14:00:10;;;;;;;6.32;3.40;;;23.90;99.90;;;;;;4993269;28;20649;-82
2023/05/06 14:02:37;;;;;;;8.65;3.40;;;23.90;99.90;;;;;;4990913;28;20948;-83
2023/05/06 14:05:05;;;;;;;11.07;3.90;;;24.00;99.90;;;;;;4992602;28;20504;-81
2023/05/06 14:07:32;;;;;;;11.10;4.05;;;24.00;99.90;;;;;;4992897;28;20196;-83
2023/05/06 14:09:59;;;;;;;8.63;3.80;;;23.70;99.90;;;;;;4993177;28;20196;-83
2023/05/06 14:12:26;;;;;;;13.68;4.25;;;23.60;99.90;;;;;;4992297;28;20237;-79
2023/05/06 14:14:54;;;;;;;10.07;4.43;;;23.30;99.90;;;;;;4986309;28;20231;-79
2023/05/06 14:17:21;;;;;;;11.95;4.20;;;23.10;99.90;;;;;;4981328;28;20212;-79
2023/05/06 14:19:48;;;;;;;9.73;3.63;;;22.90;99.90;;;;;;4983034;28;20211;-81
2023/05/06 14:22:15;;;;;;;11.63;3.58;;;23.00;99.90;;;;;;4983353;28;20218;-80
2023/05/06 14:24:42;;;;;;;9.48;4.13;;;23.10;99.90;;;;;;4990134;28;20227;-78
2023/05/06 14:27:09;;;;;;;10.52;3.40;;;23.10;99.90;;;;;;4992905;28;20215;-80
2023/05/06 14:29:35;;;;;;;9.02;3.75;;;23.10;99.90;;;;;;4992944;28;20207;-79
2023/05/06 14:32:04;;;;;;;12.40;3.38;;;22.90;99.90;;;;;;4985923;28;20208;-80
2023/05/06 14:34:34;;;;;;;13.57;6.13;;;22.70;99.90;;;;;;4978353;28;20206;-79
2023/05/06 14:37:01;;;;;;;12.07;6.25;;;22.50;99.90;;;;;;4981447;28;20243;-79
2023/05/06 14:39:28;;;;;;;9.50;3.42;;;22.30;99.90;;;;;;4986505;28;20234;-79
2023/05/06 14:41:55;;;;;;;11.23;3.67;;;22.30;99.90;;;;;;4984432;28;20605;-78
2023/05/06 14:44:22;;;;;;;10.38;4.63;;;22.20;99.90;;;;;;4985087;28;20214;-79
2023/05/06 14:46:49;;;;;;;12.75;4.47;;;22.20;99.90;;;;;;4982292;28;20205;-79
2023/05/06 14:49:17;;;;;;;12.73;4.10;;;22.10;99.90;;;;;;4981200;28;20208;-79
2023/05/06 14:51:46;;;;;;;13.98;5.38;;;22.00;99.90;;;;;;4974625;28;20204;-79
2023/05/06 14:54:13;;;;;;;14.07;7.00;;;21.80;99.90;;;;;;4973423;28;20218;-79
2023/05/06 14:56:40;;;;;;;13.95;7.30;;;21.70;99.90;;;;;;4989423;28;20238;-79
2023/05/06 14:59:07;;;;;;;13.32;7.30;;;21.50;99.90;;;;;;4989325;28;20224;-79
2023/05/06 15:01:34;;;;;;;14.60;8.18;;;21.40;99.90;;;;;;4989005;28;20314;-80
2023/05/06 15:04:01;;;;;;;17.60;9.20;;;21.20;99.90;;;;;;4990900;28;20280;-81
2023/05/06 15:06:30;;;;;;;17.67;8.98;;;20.90;99.90;;;;;;4991196;28;20252;-79
2023/05/06 15:08:57;;;;;;;16.92;10.02;;;20.80;99.90;;;;;;4989507;28;20537;-78
2023/05/06 15:11:24;;;;;;;16.02;9.40;;;20.60;99.90;;;;;;4992121;28;20200;-80
2023/05/06 15:13:51;;;;;;;15.25;8.85;;;20.60;99.90;;;;;;4988723;28;20609;-81
2023/05/06 15:16:18;;;;;;;13.68;8.95;;;20.50;99.90;;;;;;4992019;28;20498;-80
2023/05/06 15:18:44;;;;;;;13.38;9.25;;;20.50;99.90;;;;;;4992224;28;20227;-80
2023/05/06 15:21:12;;;;;;;13.23;7.65;;;20.50;99.90;;;;;;4991431;28;20318;-79
2023/05/06 15:23:40;;;;;;;13.98;5.35;;;20.50;99.90;;;;;;4982090;28;20664;-79
2023/05/06 15:26:07;;;;;;;12.23;5.35;;;20.60;99.90;;;;;;4972827;28;20205;-79
2023/05/06 15:28:34;;;;;;;11.20;5.60;;;20.70;99.90;;;;;;4972417;28;20199;-80
2023/05/06 15:31:01;;;;;;;11.23;5.53;;;20.60;99.90;;;;;;4972661;28;20596;-79
2023/05/06 15:33:28;;;;;;;7.20;4.38;;;20.60;99.90;;;;;;4991469;28;20573;-81
2023/05/06 15:35:54;;;;;;;13.68;6.07;;;20.50;99.90;;;;;;4992169;28;20652;-80
2023/05/06 15:38:21;;;;;;;12.50;6.07;;;20.50;99.90;;;;;;4992578;28;20518;-80
2023/05/06 15:40:51;;;;;;;14.52;7.07;;;20.40;99.90;;;;;;4992002;28;20601;-79
2023/05/06 15:43:19;;;;;;;10.50;5.22;;;20.50;99.90;;;;;;4990999;28;20431;-79